createdAt,value
2018-09-17T00:00:17.915Z,78.51
2018-09-17T00:01:17.909Z,78.85
2018-09-17T00:02:17.891Z,78.99
2018-09-17T00:03:17.871Z,78.56
2018-09-17T00:04:17.859Z,77.94
2018-09-17T00:05:17.856Z,77.32
2018-09-17T00:06:17.837Z,76.75
2018-09-17T00:07:17.554Z,76.56
2018-09-17T00:08:17.536Z,76.75
2018-09-17T00:09:17.789Z,76.65
2018-09-17T00:10:17.785Z,76.65
2018-09-17T00:11:17.498Z,75.7
2018-09-17T00:12:17.481Z,76.08
2018-09-17T00:13:17.727Z,75.42
2018-09-17T00:14:17.721Z,75.22
2018-09-17T00:15:17.706Z,75.13
2018-09-17T00:16:17.422Z,75.03
2018-09-17T00:17:17.405Z,75.51
2018-09-17T00:18:17.392Z,75.51
2018-09-17T00:19:17.639Z,75.32
2018-09-17T00:20:17.625Z,75.32
2018-09-17T00:21:17.611Z,75.13
2018-09-17T00:22:17.331Z,75.32
2018-09-17T00:23:17.319Z,75.51
2018-09-17T00:24:17.569Z,75.22
2018-09-17T00:25:17.557Z,75.13
2018-09-17T00:26:17.539Z,74.74
2018-09-17T00:27:17.259Z,74.55
2018-09-17T00:28:17.507Z,74.65
2018-09-17T00:29:17.505Z,74.93
2018-09-17T00:30:17.483Z,74.17
2018-09-17T00:31:17.199Z,74.08
2018-09-17T00:32:17.445Z,74.27
2018-09-17T00:33:17.432Z,73.41
2018-09-17T00:34:17.416Z,73.47
2018-09-17T00:35:17.403Z,73.69
2018-09-17T00:36:17.389Z,73.69
2018-09-17T00:37:17.375Z,73.66
2018-09-17T00:38:17.094Z,73.66
2018-09-17T00:39:17.347Z,72.89
2018-09-17T00:40:17.330Z,72.99
2018-09-17T00:41:17.315Z,72.32
2018-09-17T00:42:17.035Z,71.94
2018-09-17T00:43:17.018Z,72.13
2018-09-17T00:44:17.006Z,72.13
2018-09-17T00:45:17.253Z,72.42
2018-09-17T00:46:17.242Z,72.51
2018-09-17T00:47:16.962Z,72.32
2018-09-17T00:48:17.213Z,72.13
2018-09-17T00:49:17.204Z,71.84
2018-09-17T00:50:16.918Z,71.75
2018-09-17T00:51:16.898Z,71.75
2018-09-17T00:52:16.884Z,70.89
2018-09-17T00:53:16.875Z,70.98
2018-09-17T00:54:17.121Z,70.61
2018-09-17T00:55:17.104Z,71.08
2018-09-17T00:56:17.092Z,70.22
2018-09-17T00:57:17.069Z,69.84
2018-09-17T00:58:16.798Z,70.03
2018-09-17T00:59:16.778Z,69.84
2018-09-17T01:00:17.032Z,70.89
2018-09-17T01:01:17.015Z,70.61
2018-09-17T01:02:16.996Z,70.79
2018-09-17T01:03:16.983Z,70.79
2018-09-17T01:04:16.968Z,70.61
2018-09-17T01:05:16.691Z,70.79
2018-09-17T01:06:16.672Z,70.79
2018-09-17T01:07:16.666Z,70.79
2018-09-17T01:08:16.913Z,70.79
2018-09-17T01:09:16.895Z,70.61
2018-09-17T01:10:16.882Z,70.32
2018-09-17T01:11:16.598Z,70.13
2018-09-17T01:12:16.850Z,70.32
2018-09-17T01:13:16.829Z,70.22
2018-09-17T01:14:16.817Z,70.22
2018-09-17T01:15:16.805Z,70.61
2018-09-17T01:16:16.785Z,70.32
2018-09-17T01:17:16.772Z,70.51
2018-09-17T01:18:16.756Z,70.61
2018-09-17T01:19:16.743Z,70.22
2018-09-17T01:20:16.728Z,70.61
2018-09-17T01:21:16.708Z,70.32
2018-09-17T01:22:16.698Z,69.65
2018-09-17T01:23:16.686Z,70
2018-09-17T01:24:16.667Z,69.17
2018-09-17T01:25:16.387Z,68.41
2018-09-17T01:26:16.372Z,68.66
2018-09-17T01:27:16.619Z,68.18
2018-09-17T01:28:16.340Z,68.18
2018-09-17T01:29:16.591Z,68.18
2018-09-17T01:30:16.573Z,68.28
2018-09-17T01:31:16.297Z,67.99
2018-09-17T01:32:16.541Z,67.14
2018-09-17T01:33:16.542Z,67.33
2018-09-17T01:34:16.511Z,66.66
2018-09-17T01:35:16.513Z,66.85
2018-09-17T01:36:16.226Z,66.85
2018-09-17T01:37:16.472Z,67.14
2018-09-17T01:38:16.452Z,67.14
2018-09-17T01:39:16.175Z,67.14
2018-09-17T01:40:16.427Z,67.52
2018-09-17T01:41:16.410Z,66.85
2018-09-17T01:42:16.125Z,66.47
2018-09-17T01:43:16.118Z,66.28
2018-09-17T01:44:16.361Z,66.56
2018-09-17T01:45:16.344Z,65.8
2018-09-17T01:46:16.420Z,65.8
2018-09-17T01:47:16.055Z,65.89
2018-09-17T01:48:16.302Z,65.33
2018-09-17T01:49:16.289Z,65.13
2018-09-17T01:50:16.267Z,64.65
2018-09-17T01:51:16.250Z,64.75
2018-09-17T01:52:15.975Z,63.99
2018-09-17T01:53:16.223Z,63.8
2018-09-17T01:54:16.210Z,63.99
2018-09-17T01:55:16.188Z,64.09
2018-09-17T01:56:16.177Z,63.6
2018-09-17T01:57:15.895Z,63.6
2018-09-17T01:58:15.882Z,63.51
2018-09-17T01:59:15.862Z,63.42
2018-09-17T02:00:16.118Z,63.42
2018-09-17T02:01:15.840Z,63.42
2018-09-17T02:02:15.822Z,63.6
2018-09-17T02:03:16.069Z,63.7
2018-09-17T02:04:15.790Z,63.42
2018-09-17T02:05:16.037Z,62.94
2018-09-17T02:06:15.757Z,62.65
2018-09-17T02:07:15.746Z,62.56
2018-09-17T02:08:16.057Z,62.75
2018-09-17T02:09:15.793Z,62.75
2018-09-17T02:10:15.959Z,62.75
2018-09-17T02:11:15.678Z,63.04
2018-09-17T02:12:15.925Z,62.65
2018-09-17T02:13:15.650Z,62.27
2018-09-17T02:14:15.894Z,62.08
2018-09-17T02:15:15.881Z,62.37
2018-09-17T02:16:15.602Z,61.8
2018-09-17T02:17:15.589Z,61.6
2018-09-17T02:18:15.570Z,61.99
2018-09-17T02:19:15.819Z,62.08
2018-09-17T02:20:15.803Z,62.08
2018-09-17T02:21:15.789Z,61.8
2018-09-17T02:22:15.778Z,62.08
2018-09-17T02:23:15.760Z,61.99
2018-09-17T02:24:15.742Z,61.7
2018-09-17T02:25:15.724Z,61.41
2018-09-17T02:26:15.720Z,60.84
2018-09-17T02:27:15.708Z,60.75
2018-09-17T02:28:15.689Z,60.75
2018-09-17T02:29:15.669Z,60.36
2018-09-17T02:30:15.649Z,60.05
2018-09-17T02:31:15.653Z,59.79
2018-09-17T02:32:15.618Z,59.79
2018-09-17T02:33:15.604Z,59.31
2018-09-17T02:34:15.596Z,59.51
2018-09-17T02:35:15.576Z,59.57
2018-09-17T02:36:15.292Z,59.03
2018-09-17T02:37:15.283Z,59.12
2018-09-17T02:38:15.521Z,58.94
2018-09-17T02:39:15.517Z,58.33
2018-09-17T02:40:15.227Z,58.46
2018-09-17T02:41:15.476Z,57.7
2018-09-17T02:42:15.465Z,57.09
2018-09-17T02:43:15.654Z,56.43
2018-09-17T02:44:15.433Z,56.04
2018-09-17T02:45:15.419Z,55.38
2018-09-17T02:46:15.141Z,54.9
2018-09-17T02:47:15.124Z,55.12
2018-09-17T02:48:15.386Z,55.02
2018-09-17T02:49:15.355Z,54.8
2018-09-17T02:50:15.337Z,54.14
2018-09-17T02:51:15.058Z,54.24
2018-09-17T02:52:15.316Z,53.66
2018-09-17T02:53:15.287Z,53.41
2018-09-17T02:54:15.274Z,53.28
2018-09-17T02:55:14.996Z,52.73
2018-09-17T02:56:15.279Z,53.47
2018-09-17T02:57:14.964Z,53
2018-09-17T02:58:14.945Z,52.92
2018-09-17T02:59:15.203Z,53.41
2018-09-17T03:00:14.923Z,52.52
2018-09-17T03:01:15.162Z,52.64
2018-09-17T03:02:15.152Z,52.64
2018-09-17T03:03:15.141Z,52.61
2018-09-17T03:04:14.853Z,53.12
2018-09-17T03:05:15.102Z,53.02
2018-09-17T03:06:14.824Z,52.83
2018-09-17T03:07:14.818Z,52.36
2018-09-17T03:08:15.058Z,52.92
2018-09-17T03:09:15.044Z,52.64
2018-09-17T03:10:15.031Z,52.52
2018-09-17T03:11:15.012Z,52.14
2018-09-17T03:12:14.732Z,51.76
2018-09-17T03:13:14.974Z,51.66
2018-09-17T03:14:14.969Z,51.09
2018-09-17T03:15:14.685Z,50.99
2018-09-17T03:16:14.932Z,51.21
2018-09-17T03:17:14.914Z,51.18
2018-09-17T03:18:14.638Z,50.92
2018-09-17T03:19:14.625Z,50.73
2018-09-17T03:20:14.603Z,50.71
2018-09-17T03:21:14.861Z,50.8
2018-09-17T03:22:14.570Z,50.71
2018-09-17T03:23:14.557Z,50.71
2018-09-17T03:24:14.806Z,50.83
2018-09-17T03:25:14.789Z,50.23
2018-09-17T03:26:14.512Z,50.9
2018-09-17T03:27:14.497Z,50.99
2018-09-17T03:28:14.745Z,51.02
2018-09-17T03:29:14.736Z,51.18
2018-09-17T03:30:14.447Z,51.21
2018-09-17T03:31:14.716Z,50.99
2018-09-17T03:32:14.702Z,50.63
2018-09-17T03:33:14.667Z,51.21
2018-09-17T03:34:14.659Z,50.9
2018-09-17T03:35:14.642Z,51.37
2018-09-17T03:36:14.363Z,51.37
2018-09-17T03:37:14.608Z,51.02
2018-09-17T03:38:14.593Z,50.83
2018-09-17T03:39:14.307Z,50.52
2018-09-17T03:40:14.564Z,51.18
2018-09-17T03:41:14.277Z,51.12
2018-09-17T03:42:14.262Z,50.99
2018-09-17T03:43:14.243Z,51.02
2018-09-17T03:44:14.231Z,51.09
2018-09-17T03:45:14.480Z,50.83
2018-09-17T03:46:14.546Z,51.09
2018-09-17T03:47:14.498Z,51.31
2018-09-17T03:48:14.429Z,50.92
2018-09-17T03:49:14.420Z,51.12
2018-09-17T03:50:14.144Z,50.8
2018-09-17T03:51:14.390Z,50.71
2018-09-17T03:52:14.369Z,50.42
2018-09-17T03:53:14.351Z,50.71
2018-09-17T03:54:14.340Z,50.99
2018-09-17T03:55:14.327Z,50.99
2018-09-17T03:56:14.047Z,50.42
2018-09-17T03:57:14.025Z,50.13
2018-09-17T03:58:14.276Z,49.85
2018-09-17T03:59:14.254Z,49.85
2018-09-17T04:00:13.977Z,50.13
2018-09-17T04:01:13.963Z,49.76
2018-09-17T04:02:14.214Z,49.76
2018-09-17T04:03:14.194Z,49.76
2018-09-17T04:04:14.195Z,49.87
2018-09-17T04:05:14.168Z,49.85
2018-09-17T04:06:13.893Z,49.56
2018-09-17T04:07:13.867Z,49.76
2018-09-17T04:08:14.115Z,49.56
2018-09-17T04:09:13.835Z,49.56
2018-09-17T04:10:13.820Z,49.56
2018-09-17T04:11:14.066Z,49.66
2018-09-17T04:12:14.056Z,49.66
2018-09-17T04:13:13.775Z,49.18
2018-09-17T04:14:14.038Z,49.28
2018-09-17T04:15:14.003Z,49.28
2018-09-17T04:16:13.727Z,49.37
2018-09-17T04:17:13.979Z,49.28
2018-09-17T04:18:13.959Z,49.37
2018-09-17T04:19:13.680Z,49.56
2018-09-17T04:20:13.929Z,49.76
2018-09-17T04:21:13.910Z,50.04
2018-09-17T04:22:13.893Z,50.42
2018-09-17T04:23:13.896Z,50.04
2018-09-17T04:24:13.864Z,50.04
2018-09-17T04:25:13.851Z,49.66
2018-09-17T04:26:13.566Z,49.76
2018-09-17T04:27:13.554Z,48.9
2018-09-17T04:28:13.802Z,49.08
2018-09-17T04:29:13.790Z,49.08
2018-09-17T04:30:13.509Z,49.18
2018-09-17T04:31:13.767Z,49.18
2018-09-17T04:32:13.740Z,49.08
2018-09-17T04:33:13.920Z,49.08
2018-09-17T04:34:13.713Z,48.71
2018-09-17T04:35:13.692Z,48.13
2018-09-17T04:36:13.414Z,48.52
2018-09-17T04:37:13.393Z,48.61
2018-09-17T04:38:13.643Z,48.32
2018-09-17T04:39:13.630Z,48.52
2018-09-17T04:40:13.343Z,48.04
2018-09-17T04:41:13.331Z,48.13
2018-09-17T04:42:13.581Z,47.66
2018-09-17T04:43:13.518Z,47.56
2018-09-17T04:44:13.549Z,47.47
2018-09-17T04:45:13.530Z,47.18
2018-09-17T04:46:13.516Z,47.08
2018-09-17T04:47:13.509Z,47.08
2018-09-17T04:48:13.228Z,46.89
2018-09-17T04:49:13.207Z,47.08
2018-09-17T04:50:13.194Z,47.37
2018-09-17T04:51:13.174Z,47.56
2018-09-17T04:52:13.431Z,47.08
2018-09-17T04:53:13.149Z,46.7
2018-09-17T04:54:13.403Z,46.7
2018-09-17T04:55:13.381Z,46.99
2018-09-17T04:56:13.363Z,46.8
2018-09-17T04:57:13.391Z,47.08
2018-09-17T04:58:13.326Z,46.7
2018-09-17T04:59:13.312Z,46.99
2018-09-17T05:00:13.035Z,47.18
2018-09-17T05:01:13.280Z,46.7
2018-09-17T05:02:13.000Z,46.7
2018-09-17T05:03:13.245Z,46.51
2018-09-17T05:04:13.235Z,46.99
2018-09-17T05:05:12.950Z,47.08
2018-09-17T05:06:13.198Z,46.32
2018-09-17T05:07:12.932Z,46.23
2018-09-17T05:08:13.172Z,46.13
2018-09-17T05:09:13.156Z,46.04
2018-09-17T05:10:13.135Z,45.94
2018-09-17T05:11:13.123Z,45.94
2018-09-17T05:12:13.108Z,46.04
2018-09-17T05:13:13.359Z,45.75
2018-09-17T05:14:13.076Z,45.94
2018-09-17T05:15:13.058Z,46.13
2018-09-17T05:16:13.045Z,45.56
2018-09-17T05:17:13.028Z,45.65
2018-09-17T05:18:12.754Z,45.65
2018-09-17T05:19:12.999Z,45.56
2018-09-17T05:20:12.985Z,45.56
2018-09-17T05:21:12.963Z,45.37
2018-09-17T05:22:12.956Z,46.13
2018-09-17T05:23:12.934Z,45.75
2018-09-17T05:24:12.917Z,45.08
2018-09-17T05:25:12.637Z,45.28
2018-09-17T05:26:12.621Z,44.8
2018-09-17T05:27:12.877Z,44.99
2018-09-17T05:28:12.604Z,44.6
2018-09-17T05:29:12.835Z,44.7
2018-09-17T05:30:12.554Z,44.8
2018-09-17T05:31:12.804Z,44.51
2018-09-17T05:32:12.793Z,44.6
2018-09-17T05:33:12.514Z,44.04
2018-09-17T05:34:12.494Z,43.84
2018-09-17T05:35:13.067Z,44.04
2018-09-17T05:36:12.728Z,44.04
2018-09-17T05:37:12.457Z,43.84
2018-09-17T05:38:12.709Z,43.37
2018-09-17T05:39:12.681Z,42.99
2018-09-17T05:40:12.401Z,42.51
2018-09-17T05:41:12.390Z,42.41
2018-09-17T05:42:12.366Z,42.8
2018-09-17T05:43:12.615Z,42.6
2018-09-17T05:44:12.337Z,42.89
2018-09-17T05:45:12.585Z,42.91
2018-09-17T05:46:12.307Z,42.15
2018-09-17T05:47:12.558Z,42.05
2018-09-17T05:48:12.539Z,41.86
2018-09-17T05:49:12.527Z,41.86
2018-09-17T05:50:12.510Z,42.05
2018-09-17T05:51:12.494Z,42.05
2018-09-17T05:52:12.208Z,41.58
2018-09-17T05:53:12.460Z,41.77
2018-09-17T05:54:12.186Z,41.77
2018-09-17T05:55:12.449Z,42.05
2018-09-17T05:56:12.155Z,41.86
2018-09-17T05:57:12.396Z,41.96
2018-09-17T05:58:12.120Z,41.96
2018-09-17T05:59:12.366Z,41.86
2018-09-17T06:00:12.092Z,41.96
2018-09-17T06:01:12.070Z,41.77
2018-09-17T06:02:12.323Z,42.15
2018-09-17T06:03:12.038Z,41.86
2018-09-17T06:04:12.023Z,41.96
2018-09-17T06:05:12.279Z,42.15
2018-09-17T06:06:12.472Z,42.05
2018-09-17T06:07:12.377Z,41.96
2018-09-17T06:08:11.967Z,41.86
2018-09-17T06:09:11.948Z,42.15
2018-09-17T06:10:12.197Z,42.08
2018-09-17T06:11:11.929Z,42.24
2018-09-17T06:12:11.905Z,42.55
2018-09-17T06:13:11.889Z,42.65
2018-09-17T06:14:12.138Z,42.74
2018-09-17T06:15:11.856Z,42.55
2018-09-17T06:16:12.107Z,42.17
2018-09-17T06:17:12.094Z,42.27
2018-09-17T06:18:12.078Z,42.27
2018-09-17T06:19:12.060Z,42.08
2018-09-17T06:20:11.779Z,42.17
2018-09-17T06:21:12.033Z,42.27
2018-09-17T06:22:12.016Z,42.17
2018-09-17T06:23:12.034Z,41.98
2018-09-17T06:24:11.720Z,42.17
2018-09-17T06:25:11.705Z,42.17
2018-09-17T06:26:11.691Z,42.65
2018-09-17T06:27:11.943Z,42.27
2018-09-17T06:28:11.927Z,42.55
2018-09-17T06:29:11.915Z,41.98
2018-09-17T06:30:11.893Z,41.91
2018-09-17T06:31:11.886Z,41.91
2018-09-17T06:32:11.598Z,41.52
2018-09-17T06:33:11.846Z,40.74
2018-09-17T06:34:11.569Z,40.76
2018-09-17T06:35:11.553Z,40.37
2018-09-17T06:36:12.023Z,40
2018-09-17T06:37:11.524Z,40.19
2018-09-17T06:38:11.778Z,40.76
2018-09-17T06:39:11.759Z,41.05
2018-09-17T06:40:11.747Z,41.62
2018-09-17T06:41:11.724Z,42.19
2018-09-17T06:42:11.711Z,42
2018-09-17T06:43:11.903Z,42.29
2018-09-17T06:44:11.420Z,42.6
2018-09-17T06:45:11.674Z,42.6
2018-09-17T06:46:11.659Z,42.57
2018-09-17T06:47:11.385Z,42.6
2018-09-17T06:48:11.632Z,42.5
2018-09-17T06:49:11.612Z,45.08
2018-09-17T06:50:11.606Z,45.84
2018-09-17T06:51:11.333Z,46.32
2018-09-17T06:52:11.565Z,47.27
2018-09-17T06:53:11.558Z,47.18
2018-09-17T06:54:11.537Z,47.85
2018-09-17T06:55:11.523Z,48.23
2018-09-17T06:56:11.514Z,48.52
2018-09-17T06:57:11.491Z,50.24
2018-09-17T06:58:11.477Z,50.93
2018-09-17T06:59:11.469Z,52.55
2018-09-17T07:00:11.184Z,53.22
2018-09-17T07:01:11.176Z,54.18
2018-09-17T07:02:11.424Z,55.23
2018-09-17T07:03:11.405Z,56.47
2018-09-17T07:04:11.403Z,58.1
2018-09-17T07:05:11.379Z,59.05
2018-09-17T07:06:11.512Z,63.93
2018-09-17T07:07:11.089Z,64.05
2018-09-17T07:08:11.342Z,64.72
2018-09-17T07:09:11.058Z,64.43
2018-09-17T07:10:11.048Z,64.82
2018-09-17T07:11:11.032Z,65.3
2018-09-17T07:12:11.285Z,65.01
2018-09-17T07:13:11.265Z,65.3
2018-09-17T07:14:11.249Z,65.39
2018-09-17T07:15:11.239Z,65.87
2018-09-17T07:16:11.222Z,65.48
2018-09-17T07:17:11.205Z,65.77
2018-09-17T07:18:11.056Z,67.02
2018-09-17T07:19:11.181Z,67.49
2018-09-17T07:20:11.166Z,67.24
2018-09-17T07:21:10.889Z,69.92
2018-09-17T07:22:11.137Z,68.39
2018-09-17T07:23:10.861Z,68.49
2018-09-17T07:24:11.116Z,71.07
2018-09-17T07:25:11.157Z,71.07
2018-09-17T07:26:10.820Z,70.97
2018-09-17T07:27:10.805Z,71.83
2018-09-17T07:28:11.055Z,73.55
2018-09-17T07:29:11.044Z,73.94
2018-09-17T07:30:11.039Z,74.45
2018-09-17T07:31:11.011Z,74.36
2018-09-17T07:32:10.740Z,74.07
2018-09-17T07:33:10.986Z,74.65
2018-09-17T07:34:10.972Z,74.84
2018-09-17T07:35:10.699Z,74.65
2018-09-17T07:36:10.736Z,75.02
2018-09-17T07:37:10.678Z,75.89
2018-09-17T07:38:10.922Z,75.93
2018-09-17T07:39:10.905Z,78.09
2018-09-17T07:40:10.631Z,79.14
2018-09-17T07:41:10.926Z,80.14
2018-09-17T07:42:10.659Z,78.42
2018-09-17T07:43:10.853Z,78.99
2018-09-17T07:44:10.572Z,79.95
2018-09-17T07:45:10.822Z,79.75
2018-09-17T07:46:10.815Z,79.66
2018-09-17T07:47:10.541Z,79.75
2018-09-17T07:48:10.521Z,79.28
2018-09-17T07:49:10.775Z,80.33
2018-09-17T07:50:10.762Z,80.24
2018-09-17T07:51:10.743Z,81.23
2018-09-17T07:52:10.747Z,81.52
2018-09-17T07:53:10.803Z,81.71
2018-09-17T07:54:10.709Z,81.81
2018-09-17T07:55:10.431Z,81.04
2018-09-17T07:56:10.680Z,80.85
2018-09-17T07:57:10.407Z,81.23
2018-09-17T07:58:10.393Z,81.62
2018-09-17T07:59:10.384Z,82.62
2018-09-17T08:00:10.373Z,84.05
2018-09-17T08:01:10.618Z,86.16
2018-09-17T08:02:10.607Z,89.42
2018-09-17T08:03:10.592Z,87.6
2018-09-17T08:04:10.326Z,90.76
2018-09-17T08:05:10.570Z,93.11
2018-09-17T08:06:10.554Z,94.07
2018-09-17T08:07:10.543Z,94.84
2018-09-17T08:08:10.270Z,95.6
2018-09-17T08:09:10.254Z,99.05
2018-09-17T08:10:10.240Z,99.1
2018-09-17T08:11:10.231Z,99.99
2018-09-17T08:12:10.485Z,99.99
2018-09-17T08:13:10.207Z,99.99
2018-09-17T08:14:10.197Z,99.99
2018-09-17T08:15:10.184Z,99.99
2018-09-17T08:16:10.168Z,99.99
2018-09-17T08:17:10.505Z,99.99
2018-09-17T08:18:10.416Z,99.99
2018-09-17T08:19:10.132Z,99.99
2018-09-17T08:20:10.390Z,99.99
2018-09-17T08:21:10.382Z,99.99
2018-09-17T08:22:10.108Z,99.99
2018-09-17T08:23:10.091Z,99.99
2018-09-17T08:24:10.343Z,99.99
2018-09-17T08:25:10.337Z,99.99
2018-09-17T08:26:10.055Z,99.99
2018-09-17T08:27:10.048Z,99.99
2018-09-17T08:28:10.297Z,99.99
2018-09-17T08:29:10.283Z,99.99
2018-09-17T08:30:10.010Z,99.99
2018-09-17T08:31:10.369Z,99.99
2018-09-17T08:32:10.252Z,99.99
2018-09-17T08:33:09.980Z,99.99
2018-09-17T08:34:09.967Z,99.99
2018-09-17T08:35:09.954Z,99.99
2018-09-17T08:36:10.207Z,99.99
2018-09-17T08:37:09.938Z,99.99
2018-09-17T08:38:10.269Z,99.99
2018-09-17T08:39:09.911Z,99.99
2018-09-17T08:40:09.904Z,99.99
2018-09-17T08:41:10.154Z,99.99
2018-09-17T08:42:10.141Z,99.99
2018-09-17T08:43:10.343Z,99.99
2018-09-17T08:44:09.864Z,99.99
2018-09-17T08:45:10.117Z,99.99
2018-09-17T08:46:09.836Z,99.99
2018-09-17T08:47:09.832Z,99.99
2018-09-17T08:48:09.817Z,99.99
2018-09-17T08:49:09.806Z,99.99
2018-09-17T08:50:10.061Z,99.99
2018-09-17T08:51:10.050Z,99.99
2018-09-17T08:52:09.814Z,99.99
2018-09-17T08:53:10.235Z,99.99
2018-09-17T08:54:09.756Z,99.99
2018-09-17T08:55:10.013Z,99.99
2018-09-17T08:56:09.998Z,99.99
2018-09-17T08:57:09.986Z,99.99
2018-09-17T08:58:09.741Z,99.99
2018-09-17T08:59:09.967Z,99.99
2018-09-17T09:00:09.695Z,99.99
2018-09-17T09:01:09.945Z,99.99
2018-09-17T09:02:09.945Z,99.99
2018-09-17T09:03:09.926Z,99.99
2018-09-17T09:04:09.653Z,99.99
2018-09-17T09:05:09.714Z,99.99
2018-09-17T09:06:09.893Z,99.99
2018-09-17T09:07:09.895Z,99.99
2018-09-17T09:08:09.614Z,99.99
2018-09-17T09:09:09.867Z,99.99
2018-09-17T09:10:09.856Z,99.99
2018-09-17T09:11:09.850Z,99.99
2018-09-17T09:12:09.836Z,99.99
2018-09-17T09:13:09.828Z,99.99
2018-09-17T09:14:09.554Z,99.99
2018-09-17T09:15:09.809Z,99.99
2018-09-17T09:16:09.534Z,99.99
2018-09-17T09:17:09.539Z,99.99
2018-09-17T09:18:09.784Z,99.99
2018-09-17T09:19:09.503Z,99.99
2018-09-17T09:20:09.756Z,99.99
2018-09-17T09:21:09.750Z,99.99
2018-09-17T09:22:09.742Z,99.99
2018-09-17T09:23:09.729Z,99.99
2018-09-17T09:24:09.451Z,99.99
2018-09-17T09:25:09.710Z,99.99
2018-09-17T09:26:09.438Z,99.99
2018-09-17T09:27:09.686Z,99.74
2018-09-17T09:28:09.679Z,99.99
2018-09-17T09:29:09.407Z,99.99
2018-09-17T09:30:09.396Z,99.99
2018-09-17T09:31:09.385Z,99.3
2018-09-17T09:32:09.416Z,99.99
2018-09-17T09:33:09.678Z,99.99
2018-09-17T09:34:09.623Z,99.5
2018-09-17T09:35:09.631Z,98.34
2018-09-17T09:36:09.607Z,99.5
2018-09-17T09:37:09.602Z,99.99
2018-09-17T09:38:09.716Z,97.19
2018-09-17T09:39:09.312Z,99.99
2018-09-17T09:40:09.307Z,98.34
2018-09-17T09:41:09.291Z,98.29
2018-09-17T09:42:09.561Z,98.29
2018-09-17T09:43:09.545Z,98.29
2018-09-17T09:44:09.540Z,95.45
2018-09-17T09:45:09.261Z,94.05
2018-09-17T09:46:09.250Z,94.63
2018-09-17T09:47:09.502Z,94.73
2018-09-17T09:48:09.496Z,97.42
2018-09-17T09:49:09.487Z,97.04
2018-09-17T09:50:09.213Z,97.81
2018-09-17T09:51:09.465Z,99.99
2018-09-17T09:52:09.457Z,97.72
2018-09-17T09:53:09.451Z,99.35
2018-09-17T09:54:09.181Z,94.24
2018-09-17T09:55:09.435Z,93.85
2018-09-17T09:56:09.162Z,93.18
2018-09-17T09:57:09.411Z,95.64
2018-09-17T09:58:09.144Z,93.04
2018-09-17T09:59:09.131Z,93.62
2018-09-17T10:00:09.388Z,91.11
2018-09-17T10:01:09.122Z,93.04
2018-09-17T10:02:09.105Z,86.76
2018-09-17T10:03:09.361Z,82.9
2018-09-17T10:04:09.354Z,84.16
2018-09-17T10:05:09.343Z,84.44
2018-09-17T10:06:09.340Z,85.7
2018-09-17T10:07:09.331Z,85.5
2018-09-17T10:08:09.322Z,86.28
2018-09-17T10:09:09.310Z,86.08
2018-09-17T10:10:09.300Z,84.74
2018-09-17T10:11:09.294Z,86.52
2018-09-17T10:12:09.286Z,86.47
2018-09-17T10:13:09.281Z,84.54
2018-09-17T10:14:09.006Z,84.88
2018-09-17T10:15:09.265Z,86.61
2018-09-17T10:16:09.250Z,84.78
2018-09-17T10:17:09.246Z,82.94
2018-09-17T10:18:08.978Z,84
2018-09-17T10:19:09.232Z,83.91
2018-09-17T10:20:09.220Z,85.36
2018-09-17T10:21:08.948Z,85.84
2018-09-17T10:22:08.940Z,87.09
2018-09-17T10:23:08.940Z,87.09
2018-09-17T10:24:08.924Z,87.77
2018-09-17T10:25:08.918Z,88.98
2018-09-17T10:26:08.907Z,87.09
2018-09-17T10:27:08.902Z,85.26
2018-09-17T10:28:09.163Z,85.16
2018-09-17T10:29:08.885Z,84.88
2018-09-17T10:30:09.146Z,84.88
2018-09-17T10:31:09.128Z,85.84
2018-09-17T10:32:09.126Z,83.18
2018-09-17T10:33:08.857Z,82.17
2018-09-17T10:34:09.116Z,82.5
2018-09-17T10:35:08.841Z,83.72
2018-09-17T10:36:09.099Z,82.17
2018-09-17T10:37:08.828Z,83.72
2018-09-17T10:38:09.082Z,82.94
2018-09-17T10:39:08.813Z,82.11
2018-09-17T10:40:09.062Z,82.31
2018-09-17T10:41:09.055Z,82.69
2018-09-17T10:42:09.058Z,83.66
2018-09-17T10:43:09.273Z,82.31
2018-09-17T10:44:08.767Z,81.15
2018-09-17T10:45:09.023Z,80.28
2018-09-17T10:46:09.023Z,79.8
2018-09-17T10:47:08.746Z,80.47
2018-09-17T10:48:09.009Z,79.41
2018-09-17T10:49:08.729Z,79.41
2018-09-17T10:50:08.724Z,80.28
2018-09-17T10:51:08.718Z,78.44
2018-09-17T10:52:08.710Z,79.06
2018-09-17T10:53:08.700Z,79.74
2018-09-17T10:54:08.967Z,79.64
2018-09-17T10:55:08.683Z,79.25
2018-09-17T10:56:08.949Z,79.74
2018-09-17T10:57:08.670Z,79.74
2018-09-17T10:58:08.926Z,80.41
2018-09-17T10:59:08.659Z,79.58
2018-09-17T11:00:08.910Z,79.45
2018-09-17T11:01:08.905Z,80.36
2018-09-17T11:02:08.646Z,78.03
2018-09-17T11:03:08.908Z,79
2018-09-17T11:04:08.622Z,79.29
2018-09-17T11:05:08.617Z,77.26
2018-09-17T11:06:08.878Z,77.17
2018-09-17T11:07:08.603Z,76.29
2018-09-17T11:08:08.913Z,75.37
2018-09-17T11:09:08.856Z,76.82
2018-09-17T11:10:08.846Z,75.85
2018-09-17T11:11:08.841Z,74.3
2018-09-17T11:12:08.836Z,74.4
2018-09-17T11:13:08.828Z,75.17
2018-09-17T11:14:08.555Z,75.65
2018-09-17T11:15:08.812Z,75.75
2018-09-17T11:16:08.807Z,76.53
2018-09-17T11:17:08.818Z,75.56
2018-09-17T11:18:08.549Z,74.69
2018-09-17T11:19:08.794Z,73.75
2018-09-17T11:20:08.780Z,74.24
2018-09-17T11:21:08.774Z,72.6
2018-09-17T11:22:08.504Z,72.11
2018-09-17T11:23:08.762Z,70.95
2018-09-17T11:24:08.551Z,70.27
2018-09-17T11:25:08.836Z,70.86
2018-09-17T11:26:08.481Z,70.89
2018-09-17T11:27:08.482Z,70.31
2018-09-17T11:28:08.738Z,71.22
2018-09-17T11:29:08.730Z,70.63
2018-09-17T11:30:08.731Z,70.54
2018-09-17T11:31:08.767Z,70.37
2018-09-17T11:32:08.746Z,68.82
2018-09-17T11:33:08.718Z,69.99
2018-09-17T11:34:08.454Z,69.06
2018-09-17T11:35:08.704Z,65.95
2018-09-17T11:36:08.699Z,66.37
2018-09-17T11:37:08.700Z,65.72
2018-09-17T11:38:08.694Z,64.46
2018-09-17T11:39:08.758Z,64.69
2018-09-17T11:40:08.692Z,64.49
2018-09-17T11:41:08.806Z,64.33
2018-09-17T11:42:08.702Z,62.51
2018-09-17T11:43:08.427Z,63.13
2018-09-17T11:44:08.688Z,61.08
2018-09-17T11:45:08.688Z,62.02
2018-09-17T11:46:08.691Z,59.03
2018-09-17T11:47:08.692Z,59.13
2018-09-17T11:48:08.736Z,57.76
2018-09-17T11:49:08.696Z,57.11
2018-09-17T11:50:08.700Z,56.82
2018-09-17T11:51:08.431Z,56.75
2018-09-17T11:52:08.442Z,56.07
2018-09-17T11:53:08.761Z,56.65
2018-09-17T11:54:08.488Z,56.1
2018-09-17T11:55:08.708Z,54.46
2018-09-17T11:56:08.447Z,55.66
2018-09-17T11:57:08.447Z,53.44
2018-09-17T11:58:08.715Z,52.56
2018-09-17T11:59:08.724Z,52.47
2018-09-17T12:00:08.463Z,52.49
2018-09-17T12:01:08.468Z,51.71
2018-09-17T12:02:08.519Z,51.44
2018-09-17T12:03:08.745Z,52.42
2018-09-17T12:04:08.478Z,52.15
2018-09-17T12:05:08.751Z,52.64
2018-09-17T12:06:08.491Z,49.53
2018-09-17T12:07:08.764Z,51.42
2018-09-17T12:08:08.514Z,50.63
2018-09-17T12:09:08.548Z,48.7
2018-09-17T12:10:08.778Z,49.85
2018-09-17T12:11:08.518Z,48.19
2018-09-17T12:12:08.526Z,48.19
2018-09-17T12:13:08.792Z,50.24
2018-09-17T12:14:08.794Z,48.11
2018-09-17T12:15:08.809Z,48.41
2018-09-17T12:16:08.816Z,47.33
2018-09-17T12:17:08.548Z,46.94
2018-09-17T12:18:08.558Z,47.62
2018-09-17T12:19:08.826Z,49.33
2018-09-17T12:20:08.568Z,46.91
2018-09-17T12:21:08.838Z,47.2
2018-09-17T12:22:08.845Z,47.79
2018-09-17T12:23:08.849Z,47.01
2018-09-17T12:24:09.043Z,47.11
2018-09-17T12:25:08.863Z,46.42
2018-09-17T12:26:08.605Z,47.77
2018-09-17T12:27:08.879Z,48.11
2018-09-17T12:28:08.885Z,48.7
2018-09-17T12:29:08.883Z,48.9
2018-09-17T12:30:08.885Z,48.53
2018-09-17T12:31:08.631Z,48.63
2018-09-17T12:32:08.893Z,48.07
2018-09-17T12:33:08.901Z,46.72
2018-09-17T12:34:08.640Z,47.6
2018-09-17T12:35:08.928Z,46.54
2018-09-17T12:36:08.650Z,45.76
2018-09-17T12:37:08.951Z,44.7
2018-09-17T12:38:08.929Z,42.84
2018-09-17T12:39:08.664Z,43.31
2018-09-17T12:40:08.675Z,43.99
2018-09-17T12:41:08.939Z,45.03
2018-09-17T12:42:08.945Z,45.62
2018-09-17T12:43:08.948Z,44.37
2018-09-17T12:44:08.958Z,46.28
2018-09-17T12:45:08.697Z,46.37
2018-09-17T12:46:08.983Z,46.3
2018-09-17T12:47:08.707Z,45.42
2018-09-17T12:48:08.974Z,45.32
2018-09-17T12:49:08.716Z,45.73
2018-09-17T12:50:08.985Z,45.25
2018-09-17T12:51:08.995Z,45.23
2018-09-17T12:52:08.738Z,46.06
2018-09-17T12:53:08.736Z,47.11
2018-09-17T12:54:08.795Z,47.43
2018-09-17T12:55:08.741Z,47.55